CheckWX is a tool to help pilots better visualize weather data.  It is not intended as a substitute for an official pre-flight weather briefing.

22:18:32 UTC

EHGG TAF
Eelde Airport
Groningen, The Netherlands
TAF EHGG 291647Z 2918/3024 03015KT 9999 SCT030 BECMG 2918/2921 36007KT TEMPO 3004/3015 6000 -SHRAGS -RA SCT020CB BKN025 PROB40 TEMPO 3004/3007 2000 -SHSN BKN008 SCT018CB BECMG 3008/3010 33011KT BECMG 3016/3019 01009KT

Mar-29@
18:00 UTC

Mar-29 @ 18:00 UTC

Mar-31@
00:00 UTC

Mar-31 @ 00:00 UTC

TAF EHGG 291647Z 2918/3024 03015KT 9999 SCT030
Wind
  • 030° at 15 KTS
Cloud Levels
  • Scattered at 3,000' AGL

Mar-29@
18:00 UTC

Mar-29 @ 18:00 UTC

Mar-30@
08:00 UTC

Mar-30 @ 08:00 UTC

BECMG 2918/2921 36007KT

Becoming

Becoming Conditions expected by Sun, Mar 29, 2020 @ 21:00 UTC

Wind
  • 360° at 7 KTS
Cloud Levels
  • Scattered at 3,000' AGL

Mar-30@
04:00 UTC

Mar-30 @ 04:00 UTC

Mar-30@
07:00 UTC

Mar-30 @ 07:00 UTC

PROB40 TEMPO 3004/3007 2000 -SHSN BKN008 SCT018CB

Temporary - 40% Likelihood

Temporary - 40% Likelihood during this time.

Conditions
Light Showers, Snow
Cloud Levels
  • Broken at 800' AGL
  • Scattered at 1,800' AGL

Mar-30@
04:00 UTC

Mar-30 @ 04:00 UTC

Mar-30@
15:00 UTC

Mar-30 @ 15:00 UTC

TEMPO 3004/3015 6000 -SHRAGS -RA SCT020CB BKN025

Temporary

Temporary Changes expected for less than half the time period

Conditions
Light Showers, Rain, Light Showers, Small hail, Light Rain
Cloud Levels
  • Scattered at 2,000' AGL
  • Broken at 2,500' AGL

Mar-30@
08:00 UTC

Mar-30 @ 08:00 UTC

Mar-30@
16:00 UTC

Mar-30 @ 16:00 UTC

BECMG 3008/3010 33011KT

Becoming

Becoming Conditions expected by Mon, Mar 30, 2020 @ 10:00 UTC

Wind
  • 330° at 11 KTS
Cloud Levels
  • Scattered at 3,000' AGL

Mar-30@
16:00 UTC

Mar-30 @ 16:00 UTC

Mar-31@
00:00 UTC

Mar-31 @ 00:00 UTC

BECMG 3016/3019 01009KT

Becoming

Becoming Conditions expected by Mon, Mar 30, 2020 @ 19:00 UTC

Wind
  • 010° at 9 KTS
Cloud Levels
  • Scattered at 3,000' AGL